Time;durP1;ratioP1;P1;durP2;ratioP2;P2;SDS_P1;SDS_P2;PMS_P1;PMS_P2;Temp;Humidity;BMP_temperature;BMP_pressure;BME280_temperature;BME280_humidity;BME280_pressure;Samples;Min_cycle;Max_cycle;Signal;HPM_P1;HPM_P2
2022/08/10 00:00:25;;;;;;;1.60;1.50;;;;;;;;;;5073201;28;20462;-78
2022/08/10 00:02:53;;;;;;;2.25;1.70;;;;;;;;;;5072769;28;20025;-84
2022/08/10 00:05:19;;;;;;;2.20;1.60;;;;;;;;;;5055585;28;20027;-84
2022/08/10 00:07:45;;;;;;;1.92;1.25;;;;;;;;;;5047240;28;20025;-80
2022/08/10 00:10:13;;;;;;;2.47;1.27;;;;;;;;;;5088075;28;20476;-82
2022/08/10 00:12:41;;;;;;;1.50;1.33;;;;;;;;;;5072651;28;20495;-86
2022/08/10 00:15:08;;;;;;;1.65;1.30;;;;;;;;;;5053777;28;20070;-81
2022/08/10 00:17:34;;;;;;;2.67;1.45;;;;;;;;;;5071916;28;20024;-81
2022/08/10 00:20:00;;;;;;;1.90;1.30;;;;;;;;;;5071133;28;20021;-84
2022/08/10 00:22:26;;;;;;;2.20;1.35;;;;;;;;;;5087742;28;20071;-85
2022/08/10 00:24:56;;;;;;;2.80;1.30;;;;;;;;;;5072004;28;20232;-85
2022/08/10 00:27:22;;;;;;;1.85;1.30;;;;;;;;;;5088365;28;20488;-83
2022/08/10 00:29:48;;;;;;;2.15;1.33;;;;;;;;;;5072151;28;20375;-81
2022/08/10 00:32:14;;;;;;;2.05;1.30;;;;;;;;;;5072422;28;20037;-84
2022/08/10 00:34:40;;;;;;;2.83;1.30;;;;;;;;;;5086960;28;20024;-85
2022/08/10 00:37:06;;;;;;;1.60;1.30;;;;;;;;;;5071443;28;20029;-80
2022/08/10 00:39:32;;;;;;;3.33;1.50;;;;;;;;;;5070731;28;20020;-79
2022/08/10 00:41:57;;;;;;;2.20;1.27;;;;;;;;;;5054671;28;20028;-82
2022/08/10 00:44:23;;;;;;;3.22;1.17;;;;;;;;;;5071597;28;20082;-87
2022/08/10 00:46:49;;;;;;;1.48;1.30;;;;;;;;;;5054409;28;20028;-80
2022/08/10 00:49:15;;;;;;;1.75;1.30;;;;;;;;;;5053764;28;20085;-82
2022/08/10 00:51:41;;;;;;;1.63;1.25;;;;;;;;;;5054145;28;20058;-81
2022/08/10 00:54:08;;;;;;;4.65;1.60;;;;;;;;;;5052566;28;20024;-84
2022/08/10 00:56:34;;;;;;;2.35;1.30;;;;;;;;;;5071200;28;20501;-81
2022/08/10 00:59:00;;;;;;;3.00;1.70;;;;;;;;;;5070902;28;20020;-79
2022/08/10 01:01:26;;;;;;;1.52;1.33;;;;;;;;;;5073730;28;20096;-87
2022/08/10 01:03:52;;;;;;;3.38;1.30;;;;;;;;;;5076237;28;20064;-83
2022/08/10 01:06:25;;;;;;;4.25;1.40;;;;;;;;;;5075992;28;20021;-81
2022/08/10 01:08:54;;;;;;;1.52;1.40;;;;;;;;;;5090243;28;20150;-85
2022/08/10 01:11:26;;;;;;;1.63;1.50;;;;;;;;;;5076444;28;20036;-83
2022/08/10 01:13:56;;;;;;;2.45;1.40;;;;;;;;;;5054868;28;20104;-86
2022/08/10 01:16:26;;;;;;;2.00;1.65;;;;;;;;;;5091499;28;20091;-89
2022/08/10 01:19:15;;;;;;;3.53;1.63;;;;;;;;;;5084571;28;20076;-86
2022/08/10 01:22:00;;;;;;;2.25;1.35;;;;;;;;;;5063338;28;20082;-86
2022/08/10 01:24:35;;;;;;;3.55;1.65;;;;;;;;;;5059377;28;20501;-80
2022/08/10 01:27:20;;;;;;;2.53;1.42;;;;;;;;;;5080000;28;20028;-83
2022/08/10 01:29:53;;;;;;;3.67;1.42;;;;;;;;;;5062020;28;20045;-80
2022/08/10 01:32:25;;;;;;;2.22;1.30;;;;;;;;;;5091663;28;20109;-86
2022/08/10 01:34:55;;;;;;;2.05;1.40;;;;;;;;;;5075320;28;20459;-83
2022/08/10 01:37:23;;;;;;;3.30;1.40;;;;;;;;;;5091482;28;20025;-81
2022/08/10 01:39:58;;;;;;;2.40;1.45;;;;;;;;;;5059301;28;20009;-83
2022/08/10 01:42:24;;;;;;;1.77;1.40;;;;;;;;;;5091380;28;20021;-86
2022/08/10 01:44:59;;;;;;;2.38;1.27;;;;;;;;;;5088922;28;20017;-79
2022/08/10 01:50:24;;;;;;;2.95;1.50;;;;;;;;;;5075553;28;20040;-83
2022/08/10 01:52:51;;;;;;;3.92;1.63;;;;;;;;;;5056235;28;21899;-81
2022/08/10 01:55:17;;;;;;;1.50;1.30;;;;;;;;;;5090794;28;20078;-82
2022/08/10 01:57:45;;;;;;;2.03;1.60;;;;;;;;;;5074057;28;20078;-80
2022/08/10 02:00:12;;;;;;;2.85;1.30;;;;;;;;;;5056547;28;20025;-80
2022/08/10 02:02:40;;;;;;;2.33;1.60;;;;;;;;;;5056383;28;20025;-83
2022/08/10 02:05:07;;;;;;;4.72;1.60;;;;;;;;;;5056318;28;20020;-84
2022/08/10 02:07:33;;;;;;;3.70;1.60;;;;;;;;;;5057461;28;20025;-85
2022/08/10 02:10:02;;;;;;;2.17;1.40;;;;;;;;;;5055946;28;20119;-85
2022/08/10 02:12:29;;;;;;;2.50;1.50;;;;;;;;;;5073574;28;20082;-79
2022/08/10 02:14:58;;;;;;;3.15;1.48;;;;;;;;;;5074101;28;20024;-87
2022/08/10 02:17:30;;;;;;;2.60;1.40;;;;;;;;;;5090423;28;20025;-80
2022/08/10 02:19:58;;;;;;;4.88;1.55;;;;;;;;;;5074801;28;20091;-84
2022/08/10 02:22:25;;;;;;;4.07;1.50;;;;;;;;;;5090386;28;20025;-82
2022/08/10 02:24:51;;;;;;;2.22;1.55;;;;;;;;;;5090067;28;20651;-82
2022/08/10 02:27:18;;;;;;;2.58;1.50;;;;;;;;;;5090159;28;20386;-81
2022/08/10 02:29:44;;;;;;;1.60;1.50;;;;;;;;;;5072735;28;20024;-82
2022/08/10 02:32:12;;;;;;;4.43;1.50;;;;;;;;;;5056551;28;20112;-83
2022/08/10 02:34:38;;;;;;;2.80;1.30;;;;;;;;;;5073054;28;20027;-86
2022/08/10 02:37:05;;;;;;;1.63;1.40;;;;;;;;;;5089586;28;20032;-83
2022/08/10 02:39:31;;;;;;;1.98;1.33;;;;;;;;;;5087692;28;20166;-88
2022/08/10 02:42:00;;;;;;;1.85;1.60;;;;;;;;;;5089997;28;20029;-87
2022/08/10 02:44:28;;;;;;;1.85;1.50;;;;;;;;;;5089957;28;20025;-82
2022/08/10 02:46:58;;;;;;;2.80;1.55;;;;;;;;;;5074426;28;20044;-83
2022/08/10 02:49:28;;;;;;;2.70;1.90;;;;;;;;;;5056097;28;20044;-81
2022/08/10 02:51:58;;;;;;;1.90;1.75;;;;;;;;;;5074309;28;20119;-81
2022/08/10 02:54:26;;;;;;;2.50;1.85;;;;;;;;;;5052014;28;20025;-85
2022/08/10 02:56:52;;;;;;;2.58;2.13;;;;;;;;;;5067346;28;20033;-79
2022/08/10 02:59:29;;;;;;;3.25;1.70;;;;;;;;;;5069524;28;20025;-84
2022/08/10 03:01:57;;;;;;;3.42;1.77;;;;;;;;;;5088087;28;20021;-81
2022/08/10 03:04:25;;;;;;;3.13;2.08;;;;;;;;;;5073826;28;20063;-85
2022/08/10 03:06:55;;;;;;;2.35;1.48;;;;;;;;;;5056326;28;20040;-83
2022/08/10 03:09:23;;;;;;;3.40;1.88;;;;;;;;;;5055025;28;20031;-81
2022/08/10 03:11:50;;;;;;;4.40;1.83;;;;;;;;;;5073425;28;20060;-79
2022/08/10 03:14:17;;;;;;;3.25;1.98;;;;;;;;;;5053197;28;20490;-81
2022/08/10 03:16:44;;;;;;;3.17;1.70;;;;;;;;;;5088322;28;20031;-86
2022/08/10 03:19:10;;;;;;;2.85;1.92;;;;;;;;;;5072842;28;20095;-80
2022/08/10 03:21:37;;;;;;;4.40;2.05;;;;;;;;;;5073916;28;20020;-83
2022/08/10 03:24:04;;;;;;;2.15;1.80;;;;;;;;;;5081413;28;20045;-79
2022/08/10 03:26:31;;;;;;;3.08;1.90;;;;;;;;;;5031718;28;20025;-80
2022/08/10 03:28:59;;;;;;;4.22;2.25;;;;;;;;;;5032299;28;20028;-79
2022/08/10 03:31:27;;;;;;;5.50;2.20;;;;;;;;;;5033702;28;20037;-81
2022/08/10 03:33:53;;;;;;;5.70;2.10;;;;;;;;;;5031272;28;20515;-80
2022/08/10 03:36:19;;;;;;;4.38;2.40;;;;;;;;;;5032668;28;20037;-85
2022/08/10 03:38:50;;;;;;;2.80;1.90;;;;;;;;;;5032411;28;20037;-80
2022/08/10 03:41:17;;;;;;;3.58;1.90;;;;;;;;;;5032416;28;20025;-81
2022/08/10 03:43:46;;;;;;;3.53;1.95;;;;;;;;;;5065033;28;20029;-79
2022/08/10 03:46:12;;;;;;;;;;;;;;;;;;5065801;28;20018;-81
2022/08/10 03:48:39;;;;;;;3.42;1.92;;;;;;;;;;5031202;28;19912;-78
2022/08/10 03:51:06;;;;;;;2.78;2.00;;;;;;;;;;5031968;28;20078;-82
2022/08/10 03:53:33;;;;;;;2.80;2.00;;;;;;;;;;5031546;28;20036;-81
2022/08/10 03:55:59;;;;;;;2.03;1.83;;;;;;;;;;5031884;28;20108;-82
2022/08/10 03:58:25;;;;;;;4.32;2.10;;;;;;;;;;5031088;28;20029;-80
2022/08/10 04:00:52;;;;;;;2.28;1.80;;;;;;;;;;5031301;28;20030;-83
2022/08/10 04:03:17;;;;;;;4.38;1.90;;;;;;;;;;5031402;28;20022;-83
2022/08/10 04:05:44;;;;;;;2.85;2.00;;;;;;;;;;5030380;28;20029;-82
2022/08/10 04:08:10;;;;;;;2.00;1.80;;;;;;;;;;5030851;28;20033;-83
2022/08/10 04:10:36;;;;;;;3.65;2.10;;;;;;;;;;5031446;28;20117;-85
2022/08/10 04:13:02;;;;;;;3.33;1.80;;;;;;;;;;5031516;28;20117;-87
2022/08/10 04:15:28;;;;;;;3.40;1.80;;;;;;;;;;5028941;28;20071;-81
2022/08/10 04:17:54;;;;;;;3.28;2.25;;;;;;;;;;5021327;28;20025;-84
2022/08/10 04:20:32;;;;;;;3.20;2.13;;;;;;;;;;5033001;28;20076;-80
2022/08/10 04:23:02;;;;;;;3.63;2.10;;;;;;;;;;5031203;28;20509;-83
2022/08/10 04:25:29;;;;;;;3.88;2.30;;;;;;;;;;5045495;28;20040;-85
2022/08/10 04:27:55;;;;;;;3.25;2.38;;;;;;;;;;5051436;28;20037;-79
2022/08/10 04:30:21;;;;;;;4.70;2.40;;;;;;;;;;5051246;28;20021;-83
2022/08/10 04:32:48;;;;;;;4.30;2.10;;;;;;;;;;5052784;28;20032;-83
2022/08/10 04:35:16;;;;;;;3.30;2.40;;;;;;;;;;5048972;28;20303;-82
2022/08/10 04:37:43;;;;;;;3.50;1.92;;;;;;;;;;5051687;28;20040;-80
2022/08/10 04:40:10;;;;;;;5.20;2.53;;;;;;;;;;5049392;28;20056;-85
2022/08/10 04:42:36;;;;;;;3.25;2.15;;;;;;;;;;5050937;28;20216;-83
2022/08/10 04:45:07;;;;;;;2.90;2.00;;;;;;;;;;5050928;28;20025;-79
2022/08/10 04:47:33;;;;;;;2.60;2.10;;;;;;;;;;5049390;28;20033;-81
2022/08/10 04:49:58;;;;;;;3.10;2.13;;;;;;;;;;5048856;28;20033;-82
2022/08/10 04:52:25;;;;;;;3.05;2.30;;;;;;;;;;5050870;28;20383;-83
2022/08/10 04:54:51;;;;;;;3.78;2.13;;;;;;;;;;5050843;28;20045;-80
2022/08/10 04:57:17;;;;;;;4.25;2.28;;;;;;;;;;5047899;28;20379;-81
2022/08/10 04:59:42;;;;;;;4.57;2.40;;;;;;;;;;5049720;28;20072;-79
2022/08/10 05:02:08;;;;;;;7.05;2.65;;;;;;;;;;5049279;28;20025;-82
2022/08/10 05:04:34;;;;;;;7.60;2.28;;;;;;;;;;5048398;28;20364;-82
2022/08/10 05:07:00;;;;;;;4.70;2.47;;;;;;;;;;5083285;28;20029;-82
2022/08/10 05:09:27;;;;;;;5.95;2.58;;;;;;;;;;5050705;28;20028;-80
2022/08/10 05:11:53;;;;;;;4.32;2.60;;;;;;;;;;5049816;28;20044;-85
2022/08/10 05:14:19;;;;;;;4.50;2.13;;;;;;;;;;5049928;28;20103;-79
2022/08/10 05:16:45;;;;;;;4.75;2.25;;;;;;;;;;5050781;28;20033;-83
2022/08/10 05:19:10;;;;;;;3.15;2.38;;;;;;;;;;5050461;28;20021;-80
2022/08/10 05:21:37;;;;;;;12.90;4.18;;;;;;;;;;5051929;28;20538;-82
2022/08/10 05:24:03;;;;;;;14.07;4.25;;;;;;;;;;5053271;28;20036;-83
2022/08/10 05:26:30;;;;;;;7.07;3.03;;;;;;;;;;5071950;28;20032;-79
2022/08/10 05:28:57;;;;;;;8.00;3.25;;;;;;;;;;5069828;28;20025;-81
2022/08/10 05:31:23;;;;;;;6.45;2.63;;;;;;;;;;5071127;28;20032;-81
2022/08/10 05:33:49;;;;;;;5.55;3.00;;;;;;;;;;5071874;28;20463;-82
2022/08/10 05:36:15;;;;;;;4.40;2.83;;;;;;;;;;5068280;28;20112;-79
2022/08/10 05:38:42;;;;;;;4.75;2.80;;;;;;;;;;5050758;28;20070;-83
2022/08/10 05:41:08;;;;;;;3.58;2.78;;;;;;;;;;5062813;28;20465;-82
2022/08/10 05:43:34;;;;;;;5.35;2.85;;;;;;;;;;5067065;28;20115;-82
2022/08/10 05:46:00;;;;;;;6.55;2.72;;;;;;;;;;5052653;28;20039;-82
2022/08/10 05:48:26;;;;;;;5.65;2.88;;;;;;;;;;5089507;28;20362;-81
2022/08/10 05:50:52;;;;;;;5.15;3.00;;;;;;;;;;5073834;28;20027;-81
2022/08/10 05:53:18;;;;;;;6.35;2.88;;;;;;;;;;5071148;28;20047;-81
2022/08/10 05:55:44;;;;;;;4.55;2.47;;;;;;;;;;5090742;28;20458;-81
2022/08/10 05:58:10;;;;;;;4.57;2.63;;;;;;;;;;5089393;28;20550;-81
2022/08/10 06:00:38;;;;;;;5.63;2.60;;;;;;;;;;5072839;28;20020;-83
2022/08/10 06:03:04;;;;;;;4.57;2.60;;;;;;;;;;5056371;28;20037;-81
2022/08/10 06:05:33;;;;;;;9.32;3.45;;;;;;;;;;5056681;28;20024;-81
2022/08/10 06:08:03;;;;;;;8.80;3.83;;;;;;;;;;5074693;28;20067;-81
2022/08/10 06:10:30;;;;;;;6.50;2.63;;;;;;;;;;5056344;28;20024;-81
2022/08/10 06:15:42;;;;;;;4.10;2.63;;;;;;;;;;5073492;28;20036;-80
2022/08/10 06:18:09;;;;;;;6.78;2.88;;;;;;;;;;5074711;28;20032;-80
2022/08/10 06:20:36;;;;;;;5.03;2.42;;;;;;;;;;5056398;28;20024;-81
2022/08/10 06:23:05;;;;;;;7.07;2.90;;;;;;;;;;5056912;28;20108;-81
2022/08/10 06:25:32;;;;;;;4.28;2.53;;;;;;;;;;5054781;28;20052;-81
2022/08/10 06:27:59;;;;;;;5.65;2.95;;;;;;;;;;5084425;28;20077;-80
2022/08/10 06:30:25;;;;;;;5.40;2.72;;;;;;;;;;5087737;28;20024;-80
2022/08/10 06:32:54;;;;;;;5.70;2.97;;;;;;;;;;5055978;28;20029;-82
2022/08/10 06:35:20;;;;;;;5.15;2.47;;;;;;;;;;5052203;28;20075;-83
2022/08/10 06:37:48;;;;;;;5.47;2.70;;;;;;;;;;5088230;28;20043;-83
2022/08/10 06:40:14;;;;;;;3.92;2.88;;;;;;;;;;5064162;28;20020;-83
2022/08/10 06:42:42;;;;;;;4.53;2.70;;;;;;;;;;5073525;28;20021;-82
2022/08/10 06:45:31;;;;;;;7.28;2.95;;;;;;;;;;5088262;28;20029;-83
2022/08/10 06:48:05;;;;;;;5.70;2.50;;;;;;;;;;5052954;28;20025;-83
2022/08/10 06:50:45;;;;;;;4.38;2.47;;;;;;;;;;5088616;28;20024;-85
2022/08/10 06:53:13;;;;;;;7.13;2.88;;;;;;;;;;5089841;28;20546;-83
2022/08/10 06:55:42;;;;;;;6.47;2.83;;;;;;;;;;5070925;28;20070;-83
2022/08/10 06:58:08;;;;;;;4.15;2.70;;;;;;;;;;5065974;28;20387;-82
2022/08/10 07:00:37;;;;;;;4.93;2.55;;;;;;;;;;5088924;28;20027;-83
2022/08/10 07:03:06;;;;;;;5.43;2.70;;;;;;;;;;5070462;28;20024;-83
2022/08/10 07:05:31;;;;;;;;;;;;;;;;;;5054520;28;20253;-82
2022/08/10 07:08:00;;;;;;;4.93;2.38;;;;;;;;;;5055559;28;19931;-82
2022/08/10 07:10:26;;;;;;;;;;;;;;;;;;5053784;28;20459;-83
2022/08/10 07:12:54;;;;;;;4.80;2.50;;;;;;;;;;5052130;28;19920;-83
2022/08/10 07:15:21;;;;;;;4.93;2.42;;;;;;;;;;5085776;28;20016;-83
2022/08/10 07:17:48;;;;;;;5.20;2.70;;;;;;;;;;5054400;28;20025;-83
2022/08/10 07:20:17;;;;;;;6.70;2.90;;;;;;;;;;5054691;28;20028;-83
2022/08/10 07:22:43;;;;;;;5.35;2.67;;;;;;;;;;5072841;28;20100;-82
2022/08/10 07:25:11;;;;;;;5.25;2.80;;;;;;;;;;5072666;28;20044;-83
2022/08/10 07:27:38;;;;;;;3.28;2.08;;;;;;;;;;5086060;28;20025;-83
2022/08/10 07:30:05;;;;;;;4.50;2.70;;;;;;;;;;5072034;28;20055;-82
2022/08/10 07:32:33;;;;;;;4.15;2.15;;;;;;;;;;5054498;28;20436;-85
2022/08/10 07:34:59;;;;;;;7.63;2.97;;;;;;;;;;5088662;28;20100;-83
2022/08/10 07:37:28;;;;;;;2.97;2.13;;;;;;;;;;5088492;28;20029;-83
2022/08/10 07:39:55;;;;;;;7.47;2.50;;;;;;;;;;5072414;28;20021;-83
2022/08/10 07:42:21;;;;;;;6.97;2.40;;;;;;;;;;5088063;28;20021;-83
2022/08/10 07:44:49;;;;;;;3.20;2.10;;;;;;;;;;5086723;28;20075;-83
2022/08/10 07:47:19;;;;;;;4.22;2.42;;;;;;;;;;5071093;28;20020;-83
2022/08/10 07:49:46;;;;;;;6.88;2.58;;;;;;;;;;5054379;28;20024;-83
2022/08/10 07:52:19;;;;;;;4.07;2.40;;;;;;;;;;5072276;28;20036;-84
2022/08/10 07:54:47;;;;;;;4.25;2.53;;;;;;;;;;5052248;28;20248;-83
2022/08/10 07:57:26;;;;;;;5.97;2.63;;;;;;;;;;5053784;28;20031;-83
2022/08/10 07:59:56;;;;;;;3.75;2.30;;;;;;;;;;5054488;28;20047;-83
2022/08/10 08:02:27;;;;;;;5.03;2.20;;;;;;;;;;5087853;28;20071;-83
2022/08/10 08:04:54;;;;;;;4.13;2.35;;;;;;;;;;5087294;28;20023;-83
2022/08/10 08:07:20;;;;;;;4.40;2.53;;;;;;;;;;5088203;28;20102;-82
2022/08/10 08:09:47;;;;;;;4.70;2.05;;;;;;;;;;5071754;28;20025;-86
2022/08/10 08:12:14;;;;;;;3.95;2.67;;;;;;;;;;5071378;28;20486;-83
2022/08/10 08:14:42;;;;;;;6.30;2.55;;;;;;;;;;5070738;28;20020;-83
2022/08/10 08:17:09;;;;;;;3.85;2.80;;;;;;;;;;5073282;28;20115;-82
2022/08/10 08:19:35;;;;;;;4.43;2.30;;;;;;;;;;5053878;28;20496;-83
2022/08/10 08:22:02;;;;;;;5.13;2.70;;;;;;;;;;5051460;28;20528;-83
2022/08/10 08:24:31;;;;;;;10.50;2.90;;;;;;;;;;5069351;28;20039;-83
2022/08/10 08:26:57;;;;;;;;;;;;;;;;;;5086576;28;20082;-82
2022/08/10 08:29:24;;;;;;;6.00;2.53;;;;;;;;;;5071257;28;19904;-82
2022/08/10 08:31:50;;;;;;;6.75;2.80;;;;;;;;;;5071478;28;20083;-82
2022/08/10 08:34:16;;;;;;;4.43;2.42;;;;;;;;;;5050905;28;20045;-83
2022/08/10 08:36:43;;;;;;;4.40;2.30;;;;;;;;;;5087840;28;20028;-83
2022/08/10 08:39:10;;;;;;;5.93;2.70;;;;;;;;;;5086630;28;20025;-83
2022/08/10 08:41:39;;;;;;;4.63;2.45;;;;;;;;;;5087331;28;20446;-85
2022/08/10 08:44:08;;;;;;;6.45;2.45;;;;;;;;;;5072250;28;20024;-83
2022/08/10 08:46:50;;;;;;;7.40;2.85;;;;;;;;;;5054271;28;20025;-83
2022/08/10 08:49:42;;;;;;;6.72;2.22;;;;;;;;;;5072465;28;20060;-85
2022/08/10 08:52:34;;;;;;;7.50;2.35;;;;;;;;;;5039531;28;20055;-86
2022/08/10 08:55:06;;;;;;;9.00;2.55;;;;;;;;;;5083848;28;20025;-85
2022/08/10 08:57:41;;;;;;;6.53;2.38;;;;;;;;;;5084902;28;20027;-83
2022/08/10 09:00:12;;;;;;;4.07;2.38;;;;;;;;;;5052800;28;20059;-88
2022/08/10 09:02:57;;;;;;;7.57;2.35;;;;;;;;;;5082808;28;20086;-85
2022/08/10 09:05:35;;;;;;;4.00;2.28;;;;;;;;;;5069798;28;20028;-86
2022/08/10 09:08:04;;;;;;;5.85;2.70;;;;;;;;;;5070242;28;20021;-86
2022/08/10 09:10:45;;;;;;;6.05;2.50;;;;;;;;;;5084105;28;20036;-84
2022/08/10 09:13:25;;;;;;;8.30;2.60;;;;;;;;;;5071004;28;20029;-86
2022/08/10 09:16:10;;;;;;;6.25;2.30;;;;;;;;;;5085694;28;20425;-84
2022/08/10 09:18:41;;;;;;;5.15;2.50;;;;;;;;;;5051702;28;20460;-84
2022/08/10 09:21:33;;;;;;;5.05;2.45;;;;;;;;;;5052286;28;20025;-86
2022/08/10 09:24:04;;;;;;;4.25;2.22;;;;;;;;;;5034309;28;20497;-87
2022/08/10 09:26:40;;;;;;;4.65;2.20;;;;;;;;;;5071306;28;20033;-87
2022/08/10 09:29:07;;;;;;;5.32;2.58;;;;;;;;;;5072129;28;20029;-84
2022/08/10 09:31:40;;;;;;;3.88;2.58;;;;;;;;;;5053992;28;20032;-85
2022/08/10 09:34:25;;;;;;;5.32;2.42;;;;;;;;;;5055417;28;20116;-84
2022/08/10 09:37:08;;;;;;;4.50;2.20;;;;;;;;;;5057125;28;20020;-86
2022/08/10 09:39:53;;;;;;;5.95;2.08;;;;;;;;;;5074792;28;20059;-85
2022/08/10 09:42:39;;;;;;;5.28;2.38;;;;;;;;;;5091400;28;20032;-83
2022/08/10 09:45:14;;;;;;;6.43;2.30;;;;;;;;;;5091236;28;20524;-83
2022/08/10 09:47:40;;;;;;;6.70;2.47;;;;;;;;;;5087274;28;20470;-83
2022/08/10 09:50:11;;;;;;;3.75;2.03;;;;;;;;;;5073693;28;20043;-84
2022/08/10 09:52:37;;;;;;;4.68;2.40;;;;;;;;;;5090541;28;20036;-87
2022/08/10 09:55:10;;;;;;;5.88;2.42;;;;;;;;;;5094512;28;20463;-85
2022/08/10 09:57:39;;;;;;;4.53;2.30;;;;;;;;;;5071339;28;20032;-86
2022/08/10 10:00:11;;;;;;;7.50;2.72;;;;;;;;;;5055288;28;20032;-86
2022/08/10 10:03:05;;;;;;;3.72;2.30;;;;;;;;;;5058261;28;20372;-83
2022/08/10 10:05:31;;;;;;;2.95;2.10;;;;;;;;;;5051876;28;20024;-84
2022/08/10 10:08:06;;;;;;;6.85;2.17;;;;;;;;;;5060355;28;20033;-81
2022/08/10 10:10:42;;;;;;;2.80;2.20;;;;;;;;;;5056324;28;20031;-81
2022/08/10 10:13:16;;;;;;;5.03;2.30;;;;;;;;;;5082784;28;20037;-81
2022/08/10 10:16:01;;;;;;;7.05;2.40;;;;;;;;;;5072698;28;20036;-80
2022/08/10 10:18:50;;;;;;;8.00;2.40;;;;;;;;;;5073488;28;20028;-82
2022/08/10 10:21:23;;;;;;;6.22;2.35;;;;;;;;;;5062127;28;20040;-81
2022/08/10 10:23:58;;;;;;;4.93;2.15;;;;;;;;;;5070003;28;20467;-80
2022/08/10 10:26:43;;;;;;;3.88;2.22;;;;;;;;;;5070178;28;20056;-80
2022/08/10 10:29:22;;;;;;;3.60;1.80;;;;;;;;;;5070008;28;20226;-81
2022/08/10 10:31:54;;;;;;;3.30;1.88;;;;;;;;;;5090216;28;20041;-81
2022/08/10 10:34:27;;;;;;;6.30;2.25;;;;;;;;;;5071914;28;20521;-81
2022/08/10 10:36:53;;;;;;;4.53;2.33;;;;;;;;;;5054700;28;20039;-81
2022/08/10 10:39:20;;;;;;;4.50;2.30;;;;;;;;;;5073470;28;20024;-81
2022/08/10 10:41:47;;;;;;;4.30;2.13;;;;;;;;;;5089566;28;20498;-80
2022/08/10 10:44:31;;;;;;;3.28;1.90;;;;;;;;;;5070813;28;20020;-82
2022/08/10 10:47:06;;;;;;;5.00;2.20;;;;;;;;;;5055551;28;20031;-82
2022/08/10 10:49:46;;;;;;;5.70;2.38;;;;;;;;;;5052663;28;20056;-82
2022/08/10 10:52:12;;;;;;;4.60;2.40;;;;;;;;;;5084489;28;20521;-81
2022/08/10 10:54:39;;;;;;;4.15;2.13;;;;;;;;;;5071951;28;20103;-81
2022/08/10 10:57:24;;;;;;;3.28;1.85;;;;;;;;;;5063450;28;20024;-81
2022/08/10 11:00:02;;;;;;;3.70;2.03;;;;;;;;;;5084929;28;20115;-80
2022/08/10 11:02:43;;;;;;;4.50;2.47;;;;;;;;;;5085711;28;20024;-82
2022/08/10 11:05:17;;;;;;;2.85;2.10;;;;;;;;;;5069856;28;20440;-82
2022/08/10 11:07:55;;;;;;;2.50;1.83;;;;;;;;;;5086354;28;20029;-82
2022/08/10 11:10:48;;;;;;;4.22;2.08;;;;;;;;;;5073604;28;20059;-83
2022/08/10 11:13:33;;;;;;;3.63;2.70;;;;;;;;;;5072602;28;20044;-82
2022/08/10 11:16:05;;;;;;;3.45;2.00;;;;;;;;;;5072737;28;20047;-81
2022/08/10 11:18:32;;;;;;;4.53;2.33;;;;;;;;;;5072047;28;20047;-81
2022/08/10 11:21:12;;;;;;;4.85;2.50;;;;;;;;;;5072508;28;20377;-82
2022/08/10 11:23:57;;;;;;;7.57;2.58;;;;;;;;;;5070575;28;20034;-82
2022/08/10 11:26:28;;;;;;;4.50;2.30;;;;;;;;;;5044788;28;20048;-81
2022/08/10 11:28:59;;;;;;;3.53;2.22;;;;;;;;;;5043632;28;20055;-84
2022/08/10 11:31:28;;;;;;;3.63;2.70;;;;;;;;;;5066267;28;20036;-81
2022/08/10 11:33:54;;;;;;;6.00;2.47;;;;;;;;;;5051210;28;20037;-83
2022/08/10 11:36:25;;;;;;;4.25;2.50;;;;;;;;;;5050750;28;20029;-82
2022/08/10 11:38:59;;;;;;;4.18;2.50;;;;;;;;;;5051792;28;20060;-82
2022/08/10 11:41:46;;;;;;;4.47;2.30;;;;;;;;;;5051361;28;20056;-82
2022/08/10 11:44:20;;;;;;;3.90;2.50;;;;;;;;;;5063551;28;20426;-81
2022/08/10 11:46:46;;;;;;;2.90;2.13;;;;;;;;;;5050435;28;20033;-81
2022/08/10 11:49:17;;;;;;;2.97;2.33;;;;;;;;;;5051441;28;20059;-83
2022/08/10 11:51:45;;;;;;;3.17;2.30;;;;;;;;;;5067801;28;20091;-82
2022/08/10 11:54:18;;;;;;;2.97;2.10;;;;;;;;;;5052449;28;20028;-82
2022/08/10 11:56:56;;;;;;;2.55;2.20;;;;;;;;;;5050721;28;20305;-81
2022/08/10 12:02:10;;;;;;;2.85;2.33;;;;;;;;;;5052543;28;20070;-80
2022/08/10 12:04:38;;;;;;;2.92;2.20;;;;;;;;;;5047147;28;20029;-81
2022/08/10 12:07:05;;;;;;;3.28;2.33;;;;;;;;;;5051191;28;20025;-83
2022/08/10 12:09:32;;;;;;;3.53;2.45;;;;;;;;;;5049999;28;20036;-83
2022/08/10 12:11:59;;;;;;;2.80;2.50;;;;;;;;;;5052554;28;20036;-84
2022/08/10 12:14:36;;;;;;;3.63;2.42;;;;;;;;;;5050352;28;20434;-83
2022/08/10 12:17:09;;;;;;;5.82;2.72;;;;;;;;;;5050700;28;20086;-84
2022/08/10 12:19:42;;;;;;;4.57;2.25;;;;;;;;;;5050792;28;20032;-83
2022/08/10 12:22:11;;;;;;;2.78;2.08;;;;;;;;;;5049240;28;20044;-86
2022/08/10 12:24:37;;;;;;;;;;;;;;;;;;5048402;28;20474;-86
2022/08/10 12:27:23;;;;;;;3.35;2.00;;;;;;;;;;5052594;28;19991;-84
2022/08/10 12:30:02;;;;;;;3.78;2.20;;;;;;;;;;5048328;28;20094;-84
2022/08/10 12:32:30;;;;;;;4.32;2.20;;;;;;;;;;5050599;28;20036;-86
2022/08/10 12:34:56;;;;;;;;;;;;;;;;;;5043273;28;20017;-83
2022/08/10 12:37:24;;;;;;;2.45;1.98;;;;;;;;;;5051725;28;19915;-83
2022/08/10 12:40:03;;;;;;;3.55;2.17;;;;;;;;;;5050381;28;20025;-85
2022/08/10 12:42:39;;;;;;;4.53;2.13;;;;;;;;;;5036572;28;20064;-83
2022/08/10 12:45:10;;;;;;;3.05;2.00;;;;;;;;;;5050138;28;20024;-84
2022/08/10 12:47:43;;;;;;;3.40;1.98;;;;;;;;;;5050272;28;20060;-83
2022/08/10 12:50:14;;;;;;;3.08;2.00;;;;;;;;;;5065786;28;20124;-83
2022/08/10 12:53:00;;;;;;;3.70;2.25;;;;;;;;;;5083663;28;20079;-84
2022/08/10 12:55:27;;;;;;;3.85;1.90;;;;;;;;;;5034955;28;20253;-84
2022/08/10 12:57:54;;;;;;;2.67;2.00;;;;;;;;;;5051324;28;20021;-83
2022/08/10 13:00:26;;;;;;;2.40;2.10;;;;;;;;;;5050417;28;20078;-83
2022/08/10 13:02:52;;;;;;;6.07;2.05;;;;;;;;;;5052056;28;20032;-85
2022/08/10 13:05:18;;;;;;;2.45;2.20;;;;;;;;;;5051509;28;20459;-84
2022/08/10 13:07:45;;;;;;;3.05;1.90;;;;;;;;;;5049740;28;20272;-84
2022/08/10 13:10:16;;;;;;;2.15;1.80;;;;;;;;;;5048822;28;20021;-83
2022/08/10 13:12:44;;;;;;;3.30;2.00;;;;;;;;;;5050323;28;20094;-85
2022/08/10 13:15:10;;;;;;;3.10;1.98;;;;;;;;;;5049374;28;20021;-84
2022/08/10 13:17:38;;;;;;;3.25;1.75;;;;;;;;;;5050010;28;20356;-83
2022/08/10 13:20:24;;;;;;;2.55;2.10;;;;;;;;;;5049229;28;20064;-83
2022/08/10 13:22:51;;;;;;;4.35;2.00;;;;;;;;;;5049972;28;20037;-83
2022/08/10 13:25:20;;;;;;;6.32;2.17;;;;;;;;;;5069645;28;20056;-83
2022/08/10 13:27:47;;;;;;;3.13;2.15;;;;;;;;;;5064067;28;20030;-83
2022/08/10 13:30:13;;;;;;;4.55;1.90;;;;;;;;;;5062369;28;20683;-83
2022/08/10 13:32:46;;;;;;;2.40;2.10;;;;;;;;;;5029593;28;20136;-84
2022/08/10 13:35:18;;;;;;;3.08;2.00;;;;;;;;;;5028905;28;20021;-83
2022/08/10 13:37:46;;;;;;;2.70;2.13;;;;;;;;;;5034344;28;20049;-85
2022/08/10 13:40:17;;;;;;;2.63;2.00;;;;;;;;;;5029693;28;20033;-84
2022/08/10 13:42:43;;;;;;;2.38;2.17;;;;;;;;;;5029491;28;20049;-87
2022/08/10 13:45:14;;;;;;;5.93;2.38;;;;;;;;;;5030473;28;20030;-85
2022/08/10 13:47:42;;;;;;;4.03;2.13;;;;;;;;;;5030492;28;20042;-86
2022/08/10 13:50:10;;;;;;;3.70;2.28;;;;;;;;;;5062426;28;20024;-83
2022/08/10 13:52:37;;;;;;;4.15;2.70;;;;;;;;;;5030478;28;20034;-85
2022/08/10 13:55:09;;;;;;;4.07;2.90;;;;;;;;;;5028775;28;20021;-85
2022/08/10 13:57:37;;;;;;;5.18;3.67;;;;;;;;;;5027734;28;20120;-85
2022/08/10 14:00:06;;;;;;;5.22;3.55;;;;;;;;;;5060775;28;20164;-85
2022/08/10 14:02:35;;;;;;;4.15;3.15;;;;;;;;;;5026193;28;20028;-84
2022/08/10 14:05:02;;;;;;;3.10;2.80;;;;;;;;;;5016350;28;20028;-82
2022/08/10 14:07:29;;;;;;;4.72;2.58;;;;;;;;;;5030642;28;20380;-86
2022/08/10 14:10:03;;;;;;;3.08;2.63;;;;;;;;;;5067185;28;20100;-84
2022/08/10 14:12:30;;;;;;;5.20;2.55;;;;;;;;;;5035272;28;20116;-84
2022/08/10 14:14:58;;;;;;;3.42;2.20;;;;;;;;;;5034852;28;20030;-83
2022/08/10 14:17:25;;;;;;;5.45;2.40;;;;;;;;;;5035336;28;20022;-83
2022/08/10 14:19:53;;;;;;;3.95;2.30;;;;;;;;;;5034914;28;20022;-83
2022/08/10 14:22:19;;;;;;;4.00;2.40;;;;;;;;;;5033891;28;20068;-85
2022/08/10 14:24:46;;;;;;;3.30;2.20;;;;;;;;;;5042658;28;20049;-85
2022/08/10 14:27:13;;;;;;;3.22;2.40;;;;;;;;;;5053533;28;20033;-83
2022/08/10 14:29:44;;;;;;;3.33;2.50;;;;;;;;;;5053701;28;20025;-85
2022/08/10 14:32:12;;;;;;;4.25;2.10;;;;;;;;;;5053674;28;20048;-89
2022/08/10 14:34:39;;;;;;;2.67;2.20;;;;;;;;;;5050160;28;20079;-84
2022/08/10 14:37:08;;;;;;;3.22;2.45;;;;;;;;;;5058086;28;20111;-86
2022/08/10 14:39:44;;;;;;;3.58;2.42;;;;;;;;;;5058351;28;20036;-86
2022/08/10 14:42:18;;;;;;;3.80;2.58;;;;;;;;;;5050975;28;20029;-85
2022/08/10 14:44:49;;;;;;;3.10;2.30;;;;;;;;;;5085994;28;20070;-84
2022/08/10 14:47:17;;;;;;;5.55;2.20;;;;;;;;;;5033473;28;20036;-83
2022/08/10 14:49:44;;;;;;;5.22;2.30;;;;;;;;;;5034870;28;20021;-85
2022/08/10 14:52:10;;;;;;;2.38;2.15;;;;;;;;;;5054402;28;20379;-85
2022/08/10 14:54:36;;;;;;;2.67;2.20;;;;;;;;;;5051845;28;20025;-84
2022/08/10 14:57:07;;;;;;;3.35;2.38;;;;;;;;;;5051648;28;20490;-83
2022/08/10 14:59:35;;;;;;;3.90;2.22;;;;;;;;;;5085307;28;20021;-84
2022/08/10 15:02:03;;;;;;;4.88;2.30;;;;;;;;;;5034015;28;20022;-83
2022/08/10 15:04:30;;;;;;;2.28;2.08;;;;;;;;;;5032718;28;20308;-83
2022/08/10 15:07:01;;;;;;;2.88;1.92;;;;;;;;;;5051202;28;20036;-83
2022/08/10 15:09:40;;;;;;;3.15;2.35;;;;;;;;;;5053006;28;20112;-86